sensor_id;sensor_type;location;lat;lon;timestamp;pressure;altitude;pressure_sealevel;temperature;humidity
44309;BME280;30022;55.846;37.340;2023-03-19T00:00:08;46598.44;;;-143.51;89.41
44309;BME280;30022;55.846;37.340;2023-03-19T00:02:34;46600.41;;;-143.51;91.24
44309;BME280;30022;55.846;37.340;2023-03-19T00:05:00;46590.53;;;-143.51;90.74
44309;BME280;30022;55.846;37.340;2023-03-19T00:07:26;46606.34;;;-143.51;90.70
44309;BME280;30022;55.846;37.340;2023-03-19T00:09:51;46598.44;;;-143.51;89.46
44309;BME280;30022;55.846;37.340;2023-03-19T00:12:17;46576.72;;;-143.51;90.84
44309;BME280;30022;55.846;37.340;2023-03-19T00:14:42;46596.47;;;-143.51;89.31
44309;BME280;30022;55.846;37.340;2023-03-19T00:17:08;46590.53;;;-143.51;90.85
44309;BME280;30022;55.846;37.340;2023-03-19T00:19:34;46594.50;;;-143.51;90.93
44309;BME280;30022;55.846;37.340;2023-03-19T00:21:59;46574.75;;;-143.51;90.92
44309;BME280;30022;55.846;37.340;2023-03-19T00:24:26;46576.72;;;-143.51;90.87
44309;BME280;30022;55.846;37.340;2023-03-19T00:26:51;46602.41;;;-143.51;89.24
44309;BME280;30022;55.846;37.340;2023-03-19T00:29:17;46582.66;;;-143.51;91.81
44309;BME280;30022;55.846;37.340;2023-03-19T00:31:43;46590.53;;;-143.51;90.49
44309;BME280;30022;55.846;37.340;2023-03-19T00:34:08;46600.41;;;-143.51;91.99
44309;BME280;30022;55.846;37.340;2023-03-19T00:36:34;46600.41;;;-143.51;89.99
44309;BME280;30022;55.846;37.340;2023-03-19T00:39:00;46598.44;;;-143.51;91.83
44309;BME280;30022;55.846;37.340;2023-03-19T00:41:26;46598.44;;;-143.51;91.48
44309;BME280;30022;55.846;37.340;2023-03-19T00:43:55;46592.53;;;-143.51;93.70
44309;BME280;30022;55.846;37.340;2023-03-19T00:46:21;46590.53;;;-143.51;93.08
44309;BME280;30022;55.846;37.340;2023-03-19T00:48:48;46602.41;;;-143.51;93.16
44309;BME280;30022;55.846;37.340;2023-03-19T00:51:15;46582.66;;;-143.51;92.58
44309;BME280;30022;55.846;37.340;2023-03-19T00:53:42;46564.88;;;-143.51;89.81
44309;BME280;30022;55.846;37.340;2023-03-19T00:56:08;46598.44;;;-143.51;92.19
44309;BME280;30022;55.846;37.340;2023-03-19T00:58:34;46594.50;;;-143.51;93.25
44309;BME280;30022;55.846;37.340;2023-03-19T01:01:03;46598.44;;;-143.51;92.58
44309;BME280;30022;55.846;37.340;2023-03-19T01:03:29;46606.34;;;-143.51;93.38
44309;BME280;30022;55.846;37.340;2023-03-19T01:05:56;46594.50;;;-143.51;91.86
44309;BME280;30022;55.846;37.340;2023-03-19T01:08:22;46618.19;;;-143.51;92.74
44309;BME280;30022;55.846;37.340;2023-03-19T01:10:47;46594.50;;;-143.51;93.36
44309;BME280;30022;55.846;37.340;2023-03-19T01:13:13;46608.31;;;-143.51;93.74
44309;BME280;30022;55.846;37.340;2023-03-19T01:15:39;46586.59;;;-143.51;91.88
44309;BME280;30022;55.846;37.340;2023-03-19T01:18:05;46586.59;;;-143.51;93.46
44309;BME280;30022;55.846;37.340;2023-03-19T01:20:32;46604.38;;;-143.51;94.54
44309;BME280;30022;55.846;37.340;2023-03-19T01:22:58;46600.41;;;-143.51;91.54
44309;BME280;30022;55.846;37.340;2023-03-19T01:25:26;46594.50;;;-143.51;94.03
44309;BME280;30022;55.846;37.340;2023-03-19T01:27:59;46594.50;;;-143.51;94.53
44309;BME280;30022;55.846;37.340;2023-03-19T01:30:25;46588.56;;;-143.51;95.11
44309;BME280;30022;55.846;37.340;2023-03-19T01:33:09;46602.41;;;-143.51;93.98
44309;BME280;30022;55.846;37.340;2023-03-19T01:35:53;46602.41;;;-143.51;94.66
44309;BME280;30022;55.846;37.340;2023-03-19T01:38:22;46618.19;;;-143.51;95.94
44309;BME280;30022;55.846;37.340;2023-03-19T01:40:50;46590.53;;;-143.51;95.49
44309;BME280;30022;55.846;37.340;2023-03-19T01:43:18;46602.41;;;-143.51;94.30
44309;BME280;30022;55.846;37.340;2023-03-19T01:45:47;46604.38;;;-143.51;95.13
44309;BME280;30022;55.846;37.340;2023-03-19T01:48:37;46564.88;;;-143.51;95.79
44309;BME280;30022;55.846;37.340;2023-03-19T01:51:08;46582.66;;;-143.51;95.97
44309;BME280;30022;55.846;37.340;2023-03-19T01:53:55;46592.53;;;-143.51;96.08
44309;BME280;30022;55.846;37.340;2023-03-19T01:56:35;46598.44;;;-143.51;94.50
44309;BME280;30022;55.846;37.340;2023-03-19T01:59:29;46574.75;;;-143.51;97.15
44309;BME280;30022;55.846;37.340;2023-03-19T02:04:52;46612.28;;;-143.51;97.59
44309;BME280;30022;55.846;37.340;2023-03-19T02:07:19;46604.38;;;-143.51;98.74
44309;BME280;30022;55.846;37.340;2023-03-19T02:09:45;46590.53;;;-143.51;96.17
44309;BME280;30022;55.846;37.340;2023-03-19T02:12:11;46604.38;;;-143.51;98.67
44309;BME280;30022;55.846;37.340;2023-03-19T02:14:37;46588.56;;;-143.51;99.77
44309;BME280;30022;55.846;37.340;2023-03-19T02:17:04;46588.56;;;-143.51;99.39
44309;BME280;30022;55.846;37.340;2023-03-19T02:19:36;46618.19;;;-143.51;98.57
44309;BME280;30022;55.846;37.340;2023-03-19T02:22:04;46588.56;;;-143.51;99.04
44309;BME280;30022;55.846;37.340;2023-03-19T02:24:35;46602.41;;;-143.51;99.19
44309;BME280;30022;55.846;37.340;2023-03-19T02:27:08;46586.59;;;-143.51;100.00
44309;BME280;30022;55.846;37.340;2023-03-19T02:29:36;46602.41;;;-143.51;100.00
44309;BME280;30022;55.846;37.340;2023-03-19T02:32:02;46612.28;;;-143.51;100.00
44309;BME280;30022;55.846;37.340;2023-03-19T02:34:32;46602.41;;;-143.51;100.00
44309;BME280;30022;55.846;37.340;2023-03-19T02:37:05;46612.28;;;-143.51;100.00
44309;BME280;30022;55.846;37.340;2023-03-19T02:39:45;46635.97;;;-143.51;100.00
44309;BME280;30022;55.846;37.340;2023-03-19T02:42:13;46576.72;;;-143.51;99.57
44309;BME280;30022;55.846;37.340;2023-03-19T02:44:40;46592.53;;;-143.51;100.00
44309;BME280;30022;55.846;37.340;2023-03-19T02:47:06;46606.34;;;-143.51;100.00
44309;BME280;30022;55.846;37.340;2023-03-19T02:49:31;46600.41;;;-143.51;100.00
44309;BME280;30022;55.846;37.340;2023-03-19T02:51:57;46602.41;;;-143.51;100.00
44309;BME280;30022;55.846;37.340;2023-03-19T02:54:23;46634.00;;;-143.51;100.00
44309;BME280;30022;55.846;37.340;2023-03-19T02:56:48;46598.44;;;-143.51;100.00
44309;BME280;30022;55.846;37.340;2023-03-19T02:59:16;46594.50;;;-143.51;100.00
44309;BME280;30022;55.846;37.340;2023-03-19T03:01:42;46606.34;;;-143.51;100.00
44309;BME280;30022;55.846;37.340;2023-03-19T03:04:08;46608.31;;;-143.51;100.00
44309;BME280;30022;55.846;37.340;2023-03-19T03:06:33;46614.25;;;-143.51;100.00
44309;BME280;30022;55.846;37.340;2023-03-19T03:09:00;46600.41;;;-143.51;100.00
44309;BME280;30022;55.846;37.340;2023-03-19T03:11:26;46606.34;;;-143.51;100.00
44309;BME280;30022;55.846;37.340;2023-03-19T03:13:52;46624.13;;;-143.51;100.00
44309;BME280;30022;55.846;37.340;2023-03-19T03:16:17;46576.72;;;-143.51;100.00
44309;BME280;30022;55.846;37.340;2023-03-19T03:18:43;46604.38;;;-143.51;100.00
44309;BME280;30022;55.846;37.340;2023-03-19T03:21:08;46604.38;;;-143.51;100.00
44309;BME280;30022;55.846;37.340;2023-03-19T03:23:34;46602.41;;;-143.51;100.00
44309;BME280;30022;55.846;37.340;2023-03-19T03:26:00;46624.13;;;-143.51;100.00
44309;BME280;30022;55.846;37.340;2023-03-19T03:28:26;46576.72;;;-143.51;100.00
44309;BME280;30022;55.846;37.340;2023-03-19T03:30:57;46584.63;;;-143.51;100.00
44309;BME280;30022;55.846;37.340;2023-03-19T03:33:23;46618.19;;;-143.51;100.00
44309;BME280;30022;55.846;37.340;2023-03-19T03:35:49;46622.16;;;-143.51;100.00
44309;BME280;30022;55.846;37.340;2023-03-19T03:38:15;46612.28;;;-143.51;100.00
44309;BME280;30022;55.846;37.340;2023-03-19T03:40:42;46592.53;;;-143.51;100.00
44309;BME280;30022;55.846;37.340;2023-03-19T03:43:08;46590.53;;;-143.51;100.00
44309;BME280;30022;55.846;37.340;2023-03-19T03:45:35;46604.38;;;-143.51;100.00
44309;BME280;30022;55.846;37.340;2023-03-19T03:48:01;46612.28;;;-143.51;100.00
44309;BME280;30022;55.846;37.340;2023-03-19T03:50:28;46630.03;;;-143.51;100.00
44309;BME280;30022;55.846;37.340;2023-03-19T03:52:57;46592.53;;;-143.51;100.00
44309;BME280;30022;55.846;37.340;2023-03-19T03:55:22;46618.19;;;-143.51;100.00
44309;BME280;30022;55.846;37.340;2023-03-19T03:57:48;46626.09;;;-143.51;100.00
44309;BME280;30022;55.846;37.340;2023-03-19T04:00:14;46614.25;;;-143.51;100.00
44309;BME280;30022;55.846;37.340;2023-03-19T04:02:39;46628.06;;;-143.51;100.00
44309;BME280;30022;55.846;37.340;2023-03-19T04:05:06;46592.53;;;-143.51;100.00
44309;BME280;30022;55.846;37.340;2023-03-19T04:07:32;46622.16;;;-143.51;100.00
44309;BME280;30022;55.846;37.340;2023-03-19T04:09:57;46614.25;;;-143.51;100.00
44309;BME280;30022;55.846;37.340;2023-03-19T04:12:23;46632.03;;;-143.51;100.00
44309;BME280;30022;55.846;37.340;2023-03-19T04:14:49;46608.31;;;-143.51;100.00
44309;BME280;30022;55.846;37.340;2023-03-19T04:17:15;46628.06;;;-143.51;100.00
44309;BME280;30022;55.846;37.340;2023-03-19T04:19:41;46586.59;;;-143.51;100.00
44309;BME280;30022;55.846;37.340;2023-03-19T04:22:08;46641.88;;;-143.51;100.00
44309;BME280;30022;55.846;37.340;2023-03-19T04:24:34;46635.97;;;-143.51;100.00
44309;BME280;30022;55.846;37.340;2023-03-19T04:27:00;46616.22;;;-143.51;100.00
44309;BME280;30022;55.846;37.340;2023-03-19T04:29:25;46590.53;;;-143.51;100.00
44309;BME280;30022;55.846;37.340;2023-03-19T04:31:52;46598.44;;;-143.51;100.00
44309;BME280;30022;55.846;37.340;2023-03-19T04:34:17;46622.16;;;-143.51;100.00
44309;BME280;30022;55.846;37.340;2023-03-19T04:36:43;46651.75;;;-143.51;100.00
44309;BME280;30022;55.846;37.340;2023-03-19T04:39:09;46618.19;;;-143.51;100.00
44309;BME280;30022;55.846;37.340;2023-03-19T04:41:35;46614.25;;;-143.51;100.00
44309;BME280;30022;55.846;37.340;2023-03-19T04:44:28;46600.41;;;-143.51;100.00
44309;BME280;30022;55.846;37.340;2023-03-19T04:46:54;46596.47;;;-143.51;100.00
44309;BME280;30022;55.846;37.340;2023-03-19T04:49:20;46602.41;;;-143.51;100.00
44309;BME280;30022;55.846;37.340;2023-03-19T04:51:47;46610.28;;;-143.51;100.00
44309;BME280;30022;55.846;37.340;2023-03-19T04:54:13;46598.44;;;-143.51;100.00
44309;BME280;30022;55.846;37.340;2023-03-19T04:56:39;46626.09;;;-143.51;100.00
44309;BME280;30022;55.846;37.340;2023-03-19T04:59:06;46600.41;;;-143.51;100.00
44309;BME280;30022;55.846;37.340;2023-03-19T05:01:32;46566.84;;;-143.51;100.00
44309;BME280;30022;55.846;37.340;2023-03-19T05:04:09;46582.66;;;-143.51;100.00
44309;BME280;30022;55.846;37.340;2023-03-19T05:06:36;46594.50;;;-143.51;100.00
44309;BME280;30022;55.846;37.340;2023-03-19T05:09:03;46594.50;;;-143.51;100.00
44309;BME280;30022;55.846;37.340;2023-03-19T05:11:30;46594.50;;;-143.51;100.00
44309;BME280;30022;55.846;37.340;2023-03-19T05:14:10;46606.34;;;-143.51;100.00
44309;BME280;30022;55.846;37.340;2023-03-19T05:16:51;46594.50;;;-143.51;98.64
44309;BME280;30022;55.846;37.340;2023-03-19T05:19:17;46584.63;;;-143.51;99.92
44309;BME280;30022;55.846;37.340;2023-03-19T05:21:43;46564.88;;;-143.51;99.43
44309;BME280;30022;55.846;37.340;2023-03-19T05:24:08;46604.38;;;-143.51;100.00
44309;BME280;30022;55.846;37.340;2023-03-19T05:26:35;46610.28;;;-143.51;100.00
44309;BME280;30022;55.846;37.340;2023-03-19T05:29:31;46614.25;;;-143.51;99.00
44309;BME280;30022;55.846;37.340;2023-03-19T05:32:10;46584.63;;;-143.51;98.64
44309;BME280;30022;55.846;37.340;2023-03-19T05:34:36;46574.75;;;-143.51;99.04
44309;BME280;30022;55.846;37.340;2023-03-19T05:37:02;46594.50;;;-143.51;98.61
44309;BME280;30022;55.846;37.340;2023-03-19T05:39:28;46584.63;;;-143.51;100.00
44309;BME280;30022;55.846;37.340;2023-03-19T05:41:59;46612.28;;;-143.51;100.00
44309;BME280;30022;55.846;37.340;2023-03-19T05:44:27;46592.53;;;-143.51;100.00
44309;BME280;30022;55.846;37.340;2023-03-19T05:47:00;46592.53;;;-143.51;98.78
44309;BME280;30022;55.846;37.340;2023-03-19T05:49:30;46600.41;;;-143.51;99.75
44309;BME280;30022;55.846;37.340;2023-03-19T05:51:56;46570.78;;;-143.51;98.61
44309;BME280;30022;55.846;37.340;2023-03-19T05:54:22;46582.66;;;-143.51;97.22
44309;BME280;30022;55.846;37.340;2023-03-19T05:56:54;46602.41;;;-143.51;100.00
44309;BME280;30022;55.846;37.340;2023-03-19T05:59:33;46610.28;;;-143.51;99.79
44309;BME280;30022;55.846;37.340;2023-03-19T06:02:19;46594.50;;;-143.51;99.13
44309;BME280;30022;55.846;37.340;2023-03-19T06:04:45;46574.75;;;-143.51;98.66
44309;BME280;30022;55.846;37.340;2023-03-19T06:07:11;46568.81;;;-143.51;100.00
44309;BME280;30022;55.846;37.340;2023-03-19T06:09:38;46560.91;;;-143.51;98.52
44309;BME280;30022;55.846;37.340;2023-03-19T06:12:05;46604.38;;;-143.51;97.86
44309;BME280;30022;55.846;37.340;2023-03-19T06:15:03;46566.84;;;-143.51;97.29
44309;BME280;30022;55.846;37.340;2023-03-19T06:17:44;46594.50;;;-143.51;100.00
44309;BME280;30022;55.846;37.340;2023-03-19T06:20:13;46582.66;;;-143.51;100.00
44309;BME280;30022;55.846;37.340;2023-03-19T06:22:39;46588.56;;;-143.51;100.00
44309;BME280;30022;55.846;37.340;2023-03-19T06:25:06;46602.41;;;-143.51;99.43
44309;BME280;30022;55.846;37.340;2023-03-19T06:27:35;46608.31;;;-143.51;100.00
44309;BME280;30022;55.846;37.340;2023-03-19T06:30:21;46606.34;;;-143.51;100.00
44309;BME280;30022;55.846;37.340;2023-03-19T06:32:47;46620.16;;;-143.51;100.00
44309;BME280;30022;55.846;37.340;2023-03-19T06:35:12;46598.44;;;-143.51;100.00
44309;BME280;30022;55.846;37.340;2023-03-19T06:37:43;46588.56;;;-143.51;100.00
44309;BME280;30022;55.846;37.340;2023-03-19T06:40:09;46598.44;;;-143.51;100.00
44309;BME280;30022;55.846;37.340;2023-03-19T06:42:35;46614.25;;;-143.51;100.00
44309;BME280;30022;55.846;37.340;2023-03-19T06:45:01;46606.34;;;-143.51;100.00
44309;BME280;30022;55.846;37.340;2023-03-19T06:47:27;46592.53;;;-143.51;100.00
44309;BME280;30022;55.846;37.340;2023-03-19T06:49:52;46602.41;;;-143.51;100.00
44309;BME280;30022;55.846;37.340;2023-03-19T06:52:18;46606.34;;;-143.51;100.00
44309;BME280;30022;55.846;37.340;2023-03-19T06:54:44;46566.84;;;-143.51;100.00
44309;BME280;30022;55.846;37.340;2023-03-19T06:57:09;46616.22;;;-143.51;100.00
44309;BME280;30022;55.846;37.340;2023-03-19T06:59:35;46592.53;;;-143.51;100.00
44309;BME280;30022;55.846;37.340;2023-03-19T07:02:01;46600.41;;;-143.51;99.54
44309;BME280;30022;55.846;37.340;2023-03-19T07:04:28;46612.28;;;-143.51;99.44
44309;BME280;30022;55.846;37.340;2023-03-19T07:06:53;46596.47;;;-143.51;99.18
44309;BME280;30022;55.846;37.340;2023-03-19T07:09:20;46596.47;;;-143.51;98.55
44309;BME280;30022;55.846;37.340;2023-03-19T07:11:45;46592.53;;;-143.51;98.50
44309;BME280;30022;55.846;37.340;2023-03-19T07:14:11;46594.50;;;-143.51;100.00
44309;BME280;30022;55.846;37.340;2023-03-19T07:16:37;46610.28;;;-143.51;99.56
44309;BME280;30022;55.846;37.340;2023-03-19T07:19:03;46602.41;;;-143.51;99.65
44309;BME280;30022;55.846;37.340;2023-03-19T07:21:29;46628.06;;;-143.51;100.00
44309;BME280;30022;55.846;37.340;2023-03-19T07:23:54;46606.34;;;-143.51;100.00
44309;BME280;30022;55.846;37.340;2023-03-19T07:26:20;46588.56;;;-143.51;99.75
44309;BME280;30022;55.846;37.340;2023-03-19T07:28:46;46604.38;;;-143.51;98.23
44309;BME280;30022;55.846;37.340;2023-03-19T07:31:11;46622.16;;;-143.51;100.00
44309;BME280;30022;55.846;37.340;2023-03-19T07:33:37;46602.41;;;-143.51;98.01
44309;BME280;30022;55.846;37.340;2023-03-19T07:36:03;46618.19;;;-143.51;99.60
44309;BME280;30022;55.846;37.340;2023-03-19T07:38:28;46590.53;;;-143.51;98.52
44309;BME280;30022;55.846;37.340;2023-03-19T07:40:54;46614.25;;;-143.51;99.81
44309;BME280;30022;55.846;37.340;2023-03-19T07:43:19;46610.28;;;-143.51;98.17
44309;BME280;30022;55.846;37.340;2023-03-19T07:45:45;46624.13;;;-143.51;96.72
44309;BME280;30022;55.846;37.340;2023-03-19T07:48:11;46584.63;;;-143.51;98.28
44309;BME280;30022;55.846;37.340;2023-03-19T07:50:37;46612.28;;;-143.51;98.64
44309;BME280;30022;55.846;37.340;2023-03-19T07:53:03;46626.09;;;-143.51;97.52
44309;BME280;30022;55.846;37.340;2023-03-19T07:55:28;46612.28;;;-143.51;98.01
44309;BME280;30022;55.846;37.340;2023-03-19T07:57:55;46614.25;;;-143.51;95.27
44309;BME280;30022;55.846;37.340;2023-03-19T08:00:20;46598.44;;;-143.51;96.85
44309;BME280;30022;55.846;37.340;2023-03-19T08:02:46;46594.50;;;-143.51;97.97
44309;BME280;30022;55.846;37.340;2023-03-19T08:05:12;46594.50;;;-143.51;96.83
44309;BME280;30022;55.846;37.340;2023-03-19T08:07:38;46592.53;;;-143.51;99.50
44309;BME280;30022;55.846;37.340;2023-03-19T08:10:06;46592.53;;;-143.51;97.91
44309;BME280;30022;55.846;37.340;2023-03-19T08:12:32;46586.59;;;-143.51;94.74
44309;BME280;30022;55.846;37.340;2023-03-19T08:15:04;46612.28;;;-143.51;95.88
44309;BME280;30022;55.846;37.340;2023-03-19T08:17:30;46618.19;;;-143.51;96.19
44309;BME280;30022;55.846;37.340;2023-03-19T08:19:58;46594.50;;;-143.51;93.73
44309;BME280;30022;55.846;37.340;2023-03-19T08:22:24;46582.66;;;-143.51;96.68
44309;BME280;30022;55.846;37.340;2023-03-19T08:24:49;46622.16;;;-143.51;95.47
44309;BME280;30022;55.846;37.340;2023-03-19T08:27:15;46628.06;;;-143.51;96.85
44309;BME280;30022;55.846;37.340;2023-03-19T08:29:41;46598.44;;;-143.51;98.54
44309;BME280;30022;55.846;37.340;2023-03-19T08:32:06;46586.59;;;-143.51;96.71
44309;BME280;30022;55.846;37.340;2023-03-19T08:34:32;46600.41;;;-143.51;98.47
44309;BME280;30022;55.846;37.340;2023-03-19T08:36:58;46630.03;;;-143.51;96.00
44309;BME280;30022;55.846;37.340;2023-03-19T08:39:23;46600.41;;;-143.51;97.46
44309;BME280;30022;55.846;37.340;2023-03-19T08:41:49;46598.44;;;-143.51;97.55
44309;BME280;30022;55.846;37.340;2023-03-19T08:44:15;46618.19;;;-143.51;98.16
44309;BME280;30022;55.846;37.340;2023-03-19T08:46:40;46608.31;;;-143.51;100.00
44309;BME280;30022;55.846;37.340;2023-03-19T08:49:06;46614.25;;;-143.51;97.45
44309;BME280;30022;55.846;37.340;2023-03-19T08:51:32;46584.63;;;-143.51;95.24
44309;BME280;30022;55.846;37.340;2023-03-19T08:53:58;46602.41;;;-143.51;98.37
44309;BME280;30022;55.846;37.340;2023-03-19T08:56:23;46610.28;;;-143.51;97.39
44309;BME280;30022;55.846;37.340;2023-03-19T08:58:49;46614.25;;;-143.51;99.38
44309;BME280;30022;55.846;37.340;2023-03-19T09:01:15;46594.50;;;-143.51;96.12
44309;BME280;30022;55.846;37.340;2023-03-19T09:03:41;46610.28;;;-143.51;100.00
44309;BME280;30022;55.846;37.340;2023-03-19T09:06:08;46600.41;;;-143.51;98.02
44309;BME280;30022;55.846;37.340;2023-03-19T09:08:35;46586.59;;;-143.51;95.65
44309;BME280;30022;55.846;37.340;2023-03-19T09:11:01;46594.50;;;-143.51;96.40
44309;BME280;30022;55.846;37.340;2023-03-19T09:13:27;46606.34;;;-143.51;98.91
44309;BME280;30022;55.846;37.340;2023-03-19T09:15:53;46592.53;;;-143.51;96.44
44309;BME280;30022;55.846;37.340;2023-03-19T09:18:18;46610.28;;;-143.51;95.43
44309;BME280;30022;55.846;37.340;2023-03-19T09:20:51;46608.31;;;-143.51;96.78
44309;BME280;30022;55.846;37.340;2023-03-19T09:23:16;46618.19;;;-143.51;100.00
44309;BME280;30022;55.846;37.340;2023-03-19T09:25:42;46590.53;;;-143.51;98.03
44309;BME280;30022;55.846;37.340;2023-03-19T09:28:08;46590.53;;;-143.51;96.05
44309;BME280;30022;55.846;37.340;2023-03-19T09:30:34;46630.03;;;-143.51;96.11
44309;BME280;30022;55.846;37.340;2023-03-19T09:32:59;46600.41;;;-143.51;99.62
44309;BME280;30022;55.846;37.340;2023-03-19T09:35:25;46628.06;;;-143.51;98.08
44309;BME280;30022;55.846;37.340;2023-03-19T09:37:56;46614.25;;;-143.51;100.00
44309;BME280;30022;55.846;37.340;2023-03-19T09:40:25;46634.00;;;-143.51;99.18
44309;BME280;30022;55.846;37.340;2023-03-19T09:42:54;46614.25;;;-143.51;97.74
44309;BME280;30022;55.846;37.340;2023-03-19T09:45:23;46630.03;;;-143.51;100.00
44309;BME280;30022;55.846;37.340;2023-03-19T09:47:50;46608.31;;;-143.51;96.83
44309;BME280;30022;55.846;37.340;2023-03-19T09:50:19;46616.22;;;-143.51;98.74
44309;BME280;30022;55.846;37.340;2023-03-19T09:52:50;46598.44;;;-143.51;97.93
44309;BME280;30022;55.846;37.340;2023-03-19T09:55:33;46630.03;;;-143.51;100.00
44309;BME280;30022;55.846;37.340;2023-03-19T09:58:00;46626.09;;;-143.51;95.85
44309;BME280;30022;55.846;37.340;2023-03-19T10:00:31;46612.28;;;-143.51;94.31
44309;BME280;30022;55.846;37.340;2023-03-19T10:03:07;46602.41;;;-143.51;98.28
44309;BME280;30022;55.846;37.340;2023-03-19T10:13:10;46616.22;;;-143.51;98.62
44309;BME280;30022;55.846;37.340;2023-03-19T10:15:38;46610.28;;;-143.51;97.66
44309;BME280;30022;55.846;37.340;2023-03-19T10:18:14;46635.97;;;-143.51;97.40
44309;BME280;30022;55.846;37.340;2023-03-19T10:20:45;46637.94;;;-143.51;100.00
44309;BME280;30022;55.846;37.340;2023-03-19T10:23:22;46624.13;;;-143.51;100.00
44309;BME280;30022;55.846;37.340;2023-03-19T10:25:53;46614.25;;;-143.51;97.15
44309;BME280;30022;55.846;37.340;2023-03-19T10:28:19;46618.19;;;-143.51;99.97
44309;BME280;30022;55.846;37.340;2023-03-19T10:30:54;46618.19;;;-143.51;99.82
44309;BME280;30022;55.846;37.340;2023-03-19T10:33:30;46628.06;;;-143.51;99.21
44309;BME280;30022;55.846;37.340;2023-03-19T10:36:04;46641.88;;;-143.51;100.00
44309;BME280;30022;55.846;37.340;2023-03-19T10:38:32;46626.09;;;-143.51;100.00
44309;BME280;30022;55.846;37.340;2023-03-19T10:41:18;46602.41;;;-143.51;94.49
44309;BME280;30022;55.846;37.340;2023-03-19T10:43:50;46634.00;;;-143.51;96.30
44309;BME280;30022;55.846;37.340;2023-03-19T10:46:16;46626.09;;;-143.51;94.21
44309;BME280;30022;55.846;37.340;2023-03-19T10:48:43;46608.31;;;-143.51;95.00
44309;BME280;30022;55.846;37.340;2023-03-19T10:51:09;46602.41;;;-143.51;94.59
44309;BME280;30022;55.846;37.340;2023-03-19T10:53:38;46628.06;;;-143.51;98.23
44309;BME280;30022;55.846;37.340;2023-03-19T10:56:23;46606.34;;;-143.51;99.35
44309;BME280;30022;55.846;37.340;2023-03-19T10:58:56;46630.03;;;-143.51;100.00
44309;BME280;30022;55.846;37.340;2023-03-19T11:01:25;46626.09;;;-143.51;100.00
44309;BME280;30022;55.846;37.340;2023-03-19T11:03:55;46628.06;;;-143.51;100.00
44309;BME280;30022;55.846;37.340;2023-03-19T11:06:25;46622.16;;;-143.51;100.00
44309;BME280;30022;55.846;37.340;2023-03-19T11:08:58;46641.88;;;-143.51;100.00
44309;BME280;30022;55.846;37.340;2023-03-19T11:11:26;46639.91;;;-143.51;100.00
44309;BME280;30022;55.846;37.340;2023-03-19T11:13:57;46620.16;;;-143.51;100.00
44309;BME280;30022;55.846;37.340;2023-03-19T11:16:23;46641.88;;;-143.51;100.00
44309;BME280;30022;55.846;37.340;2023-03-19T11:18:48;46626.09;;;-143.51;99.04
44309;BME280;30022;55.846;37.340;2023-03-19T11:21:22;46632.03;;;-143.51;98.45
44309;BME280;30022;55.846;37.340;2023-03-19T11:23:52;46606.34;;;-143.51;97.21
44309;BME280;30022;55.846;37.340;2023-03-19T11:26:22;46610.28;;;-143.51;95.54
44309;BME280;30022;55.846;37.340;2023-03-19T11:28:52;46602.41;;;-143.51;96.79
44309;BME280;30022;55.846;37.340;2023-03-19T11:31:24;46602.41;;;-143.51;100.00
44309;BME280;30022;55.846;37.340;2023-03-19T11:44:02;46614.25;;;-143.51;95.87
44309;BME280;30022;55.846;37.340;2023-03-19T11:46:34;46653.75;;;-143.51;100.00
44309;BME280;30022;55.846;37.340;2023-03-19T11:59:14;46616.22;;;-143.51;93.64
44309;BME280;30022;55.846;37.340;2023-03-19T12:02:29;46612.28;;;-143.51;96.38
44309;BME280;30022;55.846;37.340;2023-03-19T12:04:33;46602.41;;;-143.51;93.03
44309;BME280;30022;55.846;37.340;2023-03-19T12:07:04;46590.53;;;-143.51;94.14
44309;BME280;30022;55.846;37.340;2023-03-19T12:14:56;46634.00;;;-143.51;95.84
44309;BME280;30022;55.846;37.340;2023-03-19T12:22:31;46620.16;;;-143.51;96.95
44309;BME280;30022;55.846;37.340;2023-03-19T12:27:35;46651.75;;;-143.51;98.62
44309;BME280;30022;55.846;37.340;2023-03-19T12:35:33;46647.81;;;-143.51;96.10
44309;BME280;30022;55.846;37.340;2023-03-19T12:40:26;46626.09;;;-143.51;95.95
44309;BME280;30022;55.846;37.340;2023-03-19T12:42:57;46641.88;;;-143.51;97.32
44309;BME280;30022;55.846;37.340;2023-03-19T12:48:06;46634.00;;;-143.51;97.68
44309;BME280;30022;55.846;37.340;2023-03-19T12:50:35;46632.03;;;-143.51;98.99
44309;BME280;30022;55.846;37.340;2023-03-19T12:53:03;46643.88;;;-143.51;93.75
44309;BME280;30022;55.846;37.340;2023-03-19T12:55:40;46634.00;;;-143.51;93.73
44309;BME280;30022;55.846;37.340;2023-03-19T12:58:19;46639.91;;;-143.51;94.20
44309;BME280;30022;55.846;37.340;2023-03-19T13:00:53;46634.00;;;-143.51;92.31
44309;BME280;30022;55.846;37.340;2023-03-19T13:10:55;46620.16;;;-143.51;93.88
44309;BME280;30022;55.846;37.340;2023-03-19T13:15:48;46630.03;;;-143.51;93.52
44309;BME280;30022;55.846;37.340;2023-03-19T13:23:24;46630.03;;;-143.51;91.02
44309;BME280;30022;55.846;37.340;2023-03-19T13:25:52;46614.25;;;-143.51;92.29
44309;BME280;30022;55.846;37.340;2023-03-19T13:30:59;46618.19;;;-143.51;92.00
44309;BME280;30022;55.846;37.340;2023-03-19T13:33:26;46614.25;;;-143.51;93.34
44309;BME280;30022;55.846;37.340;2023-03-19T13:35:54;46637.94;;;-143.51;90.87
44309;BME280;30022;55.846;37.340;2023-03-19T13:38:27;46634.00;;;-143.51;93.97
44309;BME280;30022;55.846;37.340;2023-03-19T13:40:58;46651.75;;;-143.51;95.04
44309;BME280;30022;55.846;37.340;2023-03-19T13:48:35;46604.38;;;-143.51;89.40